createdAt,value
2022-10-18T00:00:38.965Z,81.85
2022-10-18T00:03:06.094Z,73.65
2022-10-18T00:05:33.325Z,81.30
2022-10-18T00:08:00.509Z,74.97
2022-10-18T00:10:27.846Z,74.75
2022-10-18T00:12:55.165Z,77.28
2022-10-18T00:15:22.413Z,82.28
2022-10-18T00:17:49.624Z,83.68
2022-10-18T00:20:16.805Z,80.18
2022-10-18T00:22:43.962Z,83.28
2022-10-18T00:25:11.285Z,84.18
2022-10-18T00:27:38.504Z,80.65
2022-10-18T00:30:06.003Z,84.80
2022-10-18T00:32:37.296Z,82.75
2022-10-18T00:35:05.260Z,79.28
2022-10-18T00:37:32.597Z,82.53
2022-10-18T00:39:59.839Z,78.28
2022-10-18T00:42:34.474Z,74.90
2022-10-18T00:45:08.205Z,75.82
2022-10-18T00:47:35.501Z,74.80
2022-10-18T00:50:03.558Z,67.90
2022-10-18T00:52:42.219Z,70.32
2022-10-18T00:55:09.801Z,73.40
2022-10-18T00:57:37.384Z,67.53
2022-10-18T01:00:09.653Z,57.50
2022-10-18T01:02:41.250Z,58.05
2022-10-18T01:05:08.751Z,55.03
2022-10-18T01:07:56.157Z,46.50
2022-10-18T01:10:26.325Z,55.75
2022-10-18T01:12:59.681Z,48.58
2022-10-18T01:15:28.148Z,50.78
2022-10-18T01:18:17.634Z,55.40
2022-10-18T01:20:56.983Z,49.13
2022-10-18T01:23:42.792Z,46.25
2022-10-18T01:28:51.750Z,46.33
2022-10-18T01:31:42.226Z,42.63
2022-10-18T01:34:10.674Z,49.60
2022-10-18T01:36:42.893Z,43.42
2022-10-18T01:39:13.231Z,41.50
2022-10-18T01:41:42.078Z,38.50
2022-10-18T01:44:11.346Z,43.92
2022-10-18T01:46:40.260Z,43.60
2022-10-18T01:49:07.982Z,42.75
2022-10-18T01:51:35.478Z,43.25
2022-10-18T01:54:02.986Z,58.17
2022-10-18T01:56:36.250Z,48.67
2022-10-18T01:59:07.125Z,49.03
2022-10-18T02:01:41.860Z,41.67
2022-10-18T02:04:32.080Z,44.08
2022-10-18T02:07:03.590Z,46.92
2022-10-18T02:09:42.579Z,53.67
2022-10-18T02:12:11.768Z,41.72
2022-10-18T02:14:40.254Z,52.08
2022-10-18T02:17:08.753Z,56.35
2022-10-18T02:19:38.509Z,45.47
2022-10-18T02:22:06.397Z,47.15
2022-10-18T02:24:39.398Z,54.90
2022-10-18T02:27:06.720Z,47.63
2022-10-18T02:29:34.374Z,47.70
2022-10-18T02:32:06.208Z,51.80
2022-10-18T02:34:38.012Z,60.47
2022-10-18T02:37:05.613Z,50.88
2022-10-18T02:39:36.756Z,51.20
2022-10-18T02:42:08.133Z,47.47
2022-10-18T02:44:35.528Z,50.28
2022-10-18T02:47:02.909Z,53.20
2022-10-18T02:49:30.057Z,51.95
2022-10-18T02:51:57.401Z,54.42
2022-10-18T02:54:24.936Z,66.40
2022-10-18T02:56:52.468Z,68.20
2022-10-18T02:59:19.628Z,57.85
2022-10-18T03:01:46.872Z,65.85
2022-10-18T03:04:14.147Z,62.00
2022-10-18T03:06:41.374Z,53.65
2022-10-18T03:09:08.569Z,54.15
2022-10-18T03:11:35.698Z,54.28
2022-10-18T03:14:02.951Z,58.63
2022-10-18T03:16:30.129Z,61.30
2022-10-18T03:18:57.256Z,57.17
2022-10-18T03:21:24.401Z,66.05
2022-10-18T03:23:51.570Z,55.38
2022-10-18T03:26:18.707Z,56.60
2022-10-18T03:28:45.973Z,55.90
2022-10-18T03:31:13.143Z,57.92
2022-10-18T03:33:40.476Z,62.45
2022-10-18T03:36:07.679Z,69.57
2022-10-18T03:38:34.846Z,60.17
2022-10-18T03:41:02.015Z,70.45
2022-10-18T03:43:29.180Z,69.75
2022-10-18T03:45:56.413Z,63.75
2022-10-18T03:48:23.575Z,60.70
2022-10-18T03:50:50.836Z,79.03
2022-10-18T03:53:18.026Z,60.78
2022-10-18T03:55:45.164Z,65.53
2022-10-18T03:58:12.379Z,53.35
2022-10-18T04:00:39.509Z,67.97
2022-10-18T04:03:06.683Z,60.55
2022-10-18T04:05:34.714Z,57.83
2022-10-18T04:08:01.871Z,46.00
2022-10-18T04:10:29.301Z,53.88
2022-10-18T04:12:56.474Z,64.45
2022-10-18T04:15:23.712Z,59.85
2022-10-18T04:17:51.043Z,58.35
2022-10-18T04:20:18.303Z,73.38
2022-10-18T04:22:45.490Z,74.80
2022-10-18T04:25:12.684Z,60.75
2022-10-18T04:27:39.856Z,69.18
2022-10-18T04:30:07.383Z,60.65
2022-10-18T04:32:35.489Z,83.18
2022-10-18T04:35:03.132Z,75.60
2022-10-18T04:37:30.582Z,65.32
2022-10-18T04:39:58.035Z,69.38
2022-10-18T04:42:25.356Z,62.17
2022-10-18T04:44:52.548Z,94.72
2022-10-18T04:47:19.720Z,110.82
2022-10-18T04:49:46.868Z,84.03
2022-10-18T04:52:14.046Z,51.10
2022-10-18T04:54:41.229Z,53.78
2022-10-18T04:57:08.412Z,66.28
2022-10-18T04:59:35.598Z,54.15
2022-10-18T05:04:30.785Z,54.75
2022-10-18T05:06:57.975Z,63.08
2022-10-18T05:09:25.163Z,55.42
2022-10-18T05:11:52.327Z,62.40
2022-10-18T05:14:19.573Z,53.72
2022-10-18T05:16:46.724Z,50.33
2022-10-18T05:19:13.938Z,55.25
2022-10-18T05:21:41.174Z,59.03
2022-10-18T05:24:08.321Z,65.20
2022-10-18T05:26:35.513Z,78.15
2022-10-18T05:29:03.159Z,50.65
2022-10-18T05:31:30.396Z,52.83
2022-10-18T05:33:57.602Z,72.97
2022-10-18T05:36:26.150Z,58.40
2022-10-18T05:38:54.037Z,52.83
2022-10-18T05:41:21.194Z,54.92
2022-10-18T05:43:48.432Z,54.00
2022-10-18T05:46:15.973Z,49.70
2022-10-18T05:48:44.487Z,56.47
2022-10-18T05:51:11.784Z,48.58
2022-10-18T05:53:38.940Z,53.88
2022-10-18T05:56:06.560Z,48.45
2022-10-18T05:58:34.033Z,63.60
2022-10-18T06:01:04.811Z,47.97
2022-10-18T06:03:32.204Z,63.97
2022-10-18T06:06:00.269Z,46.45
2022-10-18T06:08:27.689Z,48.75
2022-10-18T06:10:54.825Z,45.22
2022-10-18T06:13:22.046Z,40.55
2022-10-18T06:15:49.273Z,43.35
2022-10-18T06:18:16.852Z,58.33
2022-10-18T06:20:43.991Z,46.03
2022-10-18T06:23:11.156Z,45.15
2022-10-18T06:25:38.333Z,40.70
2022-10-18T06:28:07.954Z,44.78
2022-10-18T06:30:37.449Z,45.53
2022-10-18T06:33:04.698Z,68.25
2022-10-18T06:35:31.929Z,43.80
2022-10-18T06:37:59.137Z,43.13
2022-10-18T06:40:26.320Z,40.85
2022-10-18T06:43:00.220Z,45.40
2022-10-18T06:45:28.063Z,55.58
2022-10-18T06:47:55.273Z,45.85
2022-10-18T06:50:22.446Z,58.63
2022-10-18T06:52:51.167Z,49.35
2022-10-18T06:55:18.337Z,40.80
2022-10-18T06:57:45.485Z,51.95
2022-10-18T07:00:13.096Z,60.47
2022-10-18T07:02:41.322Z,62.65
2022-10-18T07:05:09.277Z,73.45
2022-10-18T07:07:36.535Z,39.72
2022-10-18T07:10:03.864Z,41.17
2022-10-18T07:12:31.769Z,60.88
2022-10-18T07:14:58.893Z,30.35
2022-10-18T07:17:26.082Z,37.60
2022-10-18T07:19:53.278Z,26.98
2022-10-18T07:22:20.384Z,42.60
2022-10-18T07:24:47.510Z,27.05
2022-10-18T07:27:14.668Z,28.73
2022-10-18T07:29:41.897Z,46.50
2022-10-18T07:32:09.100Z,33.60
2022-10-18T07:34:36.300Z,73.50
2022-10-18T07:37:03.628Z,93.82
2022-10-18T07:39:30.744Z,35.55
2022-10-18T07:41:58.341Z,25.90
2022-10-18T07:44:25.988Z,123.18
2022-10-18T07:46:53.236Z,34.75
2022-10-18T07:49:20.383Z,68.97
2022-10-18T07:51:47.540Z,48.30
2022-10-18T07:54:14.701Z,52.05
2022-10-18T07:56:43.170Z,26.17
2022-10-18T07:59:11.374Z,50.42
2022-10-18T08:01:38.558Z,42.65
2022-10-18T08:04:07.961Z,36.92
2022-10-18T08:06:37.052Z,42.60
2022-10-18T08:09:04.585Z,29.88
2022-10-18T08:11:31.740Z,32.75
2022-10-18T08:13:58.945Z,37.08
2022-10-18T08:16:27.406Z,26.25
2022-10-18T08:18:54.751Z,22.70
2022-10-18T08:21:22.264Z,32.03
2022-10-18T08:23:49.749Z,32.95
2022-10-18T08:26:18.972Z,26.45
2022-10-18T08:28:53.881Z,21.05
2022-10-18T08:31:25.659Z,24.52
2022-10-18T08:33:52.887Z,18.67
2022-10-18T08:36:20.152Z,16.73
2022-10-18T08:38:49.244Z,22.80
2022-10-18T08:41:19.517Z,17.15
2022-10-18T08:44:07.510Z,16.75
2022-10-18T08:46:35.732Z,17.65
2022-10-18T08:49:03.193Z,18.45
2022-10-18T08:51:30.302Z,17.77
2022-10-18T08:54:03.682Z,17.48
2022-10-18T08:56:31.293Z,21.90
2022-10-18T08:58:58.472Z,15.82
2022-10-18T09:01:28.674Z,15.05
2022-10-18T09:04:09.443Z,15.88
2022-10-18T09:06:41.102Z,17.75
2022-10-18T09:09:26.911Z,21.23
2022-10-18T09:12:20.057Z,15.45
2022-10-18T09:14:47.207Z,12.57
2022-10-18T09:17:19.645Z,17.15
2022-10-18T09:20:05.781Z,22.75
2022-10-18T09:22:39.942Z,19.20
2022-10-18T09:25:25.492Z,15.43
2022-10-18T09:27:54.165Z,25.55
2022-10-18T09:30:21.305Z,15.60
2022-10-18T09:32:57.828Z,17.83
2022-10-18T09:35:26.158Z,16.77
2022-10-18T09:37:56.459Z,15.43
2022-10-18T09:40:31.577Z,18.63
2022-10-18T09:42:58.723Z,14.18
2022-10-18T09:45:28.572Z,13.80
2022-10-18T09:47:55.749Z,17.08
2022-10-18T09:50:26.041Z,11.60
2022-10-18T09:53:00.394Z,16.30
2022-10-18T09:55:31.466Z,11.90
2022-10-18T09:58:00.678Z,11.00
2022-10-18T10:00:33.529Z,10.30
2022-10-18T10:03:02.005Z,11.10
2022-10-18T10:05:29.131Z,16.67
2022-10-18T10:08:02.168Z,8.50
2022-10-18T10:10:30.215Z,12.10
2022-10-18T10:13:08.612Z,10.80
2022-10-18T10:15:38.308Z,12.00
2022-10-18T10:18:18.116Z,15.90
2022-10-18T10:20:53.339Z,15.45
2022-10-18T10:25:52.251Z,16.15
2022-10-18T10:28:21.277Z,13.43
2022-10-18T10:30:48.489Z,16.25
2022-10-18T10:33:30.801Z,12.02
2022-10-18T10:36:02.173Z,14.05
2022-10-18T10:38:30.459Z,19.20
2022-10-18T10:40:57.966Z,15.15
2022-10-18T10:43:37.703Z,9.10
2022-10-18T10:46:11.824Z,16.92
2022-10-18T10:48:46.604Z,10.90
2022-10-18T10:51:14.553Z,12.43
2022-10-18T10:53:45.117Z,14.82
2022-10-18T10:56:26.252Z,11.02
2022-10-18T10:58:54.196Z,10.50
2022-10-18T11:01:29.190Z,12.57
2022-10-18T11:03:57.876Z,11.80
2022-10-18T11:06:37.057Z,18.77
2022-10-18T11:09:05.893Z,14.05
2022-10-18T11:11:35.854Z,12.88
2022-10-18T11:14:25.174Z,13.10
2022-10-18T11:16:56.255Z,8.27
2022-10-18T11:19:29.277Z,11.23
2022-10-18T11:21:57.537Z,11.95
2022-10-18T11:24:24.852Z,17.48
2022-10-18T11:27:04.021Z,16.83
2022-10-18T11:29:31.140Z,15.52
2022-10-18T11:32:14.603Z,14.75
2022-10-18T11:34:48.584Z,17.73
2022-10-18T11:37:39.434Z,7.25
2022-10-18T11:40:06.814Z,14.73
2022-10-18T11:42:52.219Z,18.52
2022-10-18T11:48:08.054Z,7.47
2022-10-18T11:51:01.583Z,10.40
2022-10-18T11:53:31.769Z,11.82
2022-10-18T11:56:16.925Z,9.88
2022-10-18T11:58:58.280Z,9.25
2022-10-18T12:01:30.646Z,19.08
2022-10-18T12:04:23.908Z,13.05
2022-10-18T12:06:55.921Z,9.45
2022-10-18T12:09:39.768Z,19.95
2022-10-18T12:12:15.273Z,14.27
2022-10-18T12:14:57.703Z,11.90
2022-10-18T12:17:49.905Z,10.15
2022-10-18T12:20:26.693Z,9.43
2022-10-18T12:23:01.170Z,13.35
2022-10-18T12:25:30.161Z,11.40
2022-10-18T12:30:35.164Z,10.65
2022-10-18T12:33:27.133Z,18.58
2022-10-18T12:36:14.147Z,12.43
2022-10-18T12:38:45.985Z,19.38
2022-10-18T12:41:33.352Z,15.40
2022-10-18T12:44:20.626Z,10.43
2022-10-18T12:46:50.095Z,12.60
2022-10-18T12:49:19.918Z,11.27
2022-10-18T12:51:54.860Z,8.45
2022-10-18T12:54:24.738Z,14.55
2022-10-18T12:56:51.964Z,8.20
2022-10-18T12:59:19.692Z,10.40
2022-10-18T13:01:53.174Z,12.70
2022-10-18T13:04:32.282Z,10.88
2022-10-18T13:07:05.722Z,13.23
2022-10-18T13:09:35.880Z,18.20
2022-10-18T13:12:03.300Z,12.85
2022-10-18T13:15:05.754Z,15.60
2022-10-18T13:17:45.583Z,11.93
2022-10-18T13:20:27.083Z,18.17
2022-10-18T13:22:54.773Z,9.70
2022-10-18T13:25:26.457Z,12.93
2022-10-18T13:27:56.369Z,15.77
2022-10-18T13:30:30.834Z,17.00
2022-10-18T13:33:08.875Z,12.52
2022-10-18T13:35:39.122Z,11.18
2022-10-18T13:38:17.433Z,10.75
2022-10-18T13:40:44.625Z,13.23
2022-10-18T13:43:30.295Z,12.20
2022-10-18T13:45:57.486Z,10.68
2022-10-18T13:48:30.409Z,24.60
2022-10-18T13:51:13.744Z,13.32
2022-10-18T13:53:40.998Z,14.90
2022-10-18T13:56:08.144Z,14.25
2022-10-18T13:58:48.768Z,10.77
2022-10-18T14:01:31.047Z,16.70
2022-10-18T14:04:21.680Z,10.60
2022-10-18T14:06:49.164Z,10.63
2022-10-18T14:12:30.175Z,13.55
2022-10-18T14:15:04.149Z,14.88
2022-10-18T14:17:42.705Z,11.35
2022-10-18T14:20:16.534Z,12.07
2022-10-18T14:22:58.870Z,18.05
2022-10-18T14:25:30.699Z,8.85
2022-10-18T14:28:11.392Z,10.82
2022-10-18T14:30:52.964Z,15.10
2022-10-18T14:33:33.249Z,11.00
2022-10-18T14:36:20.691Z,7.50
2022-10-18T14:38:47.847Z,19.25
2022-10-18T14:41:17.182Z,11.13
2022-10-18T14:43:45.276Z,19.58
2022-10-18T14:46:18.185Z,7.70
2022-10-18T14:48:55.830Z,15.85
2022-10-18T14:51:23.269Z,24.35
2022-10-18T14:53:51.153Z,23.52
2022-10-18T14:56:29.843Z,21.48
2022-10-18T14:58:57.792Z,14.50
2022-10-18T15:01:26.495Z,10.02
2022-10-18T15:03:57.662Z,12.15
2022-10-18T15:06:25.104Z,22.17
2022-10-18T15:08:54.550Z,13.27
2022-10-18T15:11:21.833Z,22.15
2022-10-18T15:13:50.999Z,18.00
2022-10-18T15:16:23.128Z,14.50
2022-10-18T15:19:02.507Z,15.73
2022-10-18T15:21:29.844Z,10.27
2022-10-18T15:24:16.990Z,13.70
2022-10-18T15:26:48.098Z,10.40
2022-10-18T15:29:22.284Z,13.25
2022-10-18T15:31:50.725Z,11.85
2022-10-18T15:34:23.097Z,17.65
2022-10-18T15:36:51.121Z,13.52
2022-10-18T15:39:20.174Z,19.08
2022-10-18T15:41:50.149Z,17.48
2022-10-18T15:44:47.152Z,16.33
2022-10-18T15:47:20.200Z,15.02
2022-10-18T15:49:47.361Z,17.55
2022-10-18T15:52:26.557Z,17.40
2022-10-18T15:54:53.738Z,14.60
2022-10-18T15:57:21.124Z,13.32
2022-10-18T16:00:02.201Z,16.33
2022-10-18T16:02:29.545Z,14.60
2022-10-18T16:04:56.813Z,18.88
2022-10-18T16:07:24.002Z,17.23
2022-10-18T16:09:51.143Z,13.95
2022-10-18T16:12:18.291Z,19.95
2022-10-18T16:14:45.430Z,19.05
2022-10-18T16:17:17.012Z,17.20
2022-10-18T16:19:45.076Z,17.50
2022-10-18T16:22:15.233Z,22.00
2022-10-18T16:24:42.396Z,15.80
2022-10-18T16:27:10.382Z,30.35
2022-10-18T16:29:37.540Z,50.88
2022-10-18T16:32:04.771Z,27.25
2022-10-18T16:34:32.314Z,22.33
2022-10-18T16:36:59.476Z,16.50
2022-10-18T16:39:26.980Z,18.50
2022-10-18T16:41:54.267Z,12.13
2022-10-18T16:44:21.517Z,19.00
2022-10-18T16:46:51.158Z,13.85
2022-10-18T16:49:23.908Z,14.20
2022-10-18T16:51:52.347Z,12.60
2022-10-18T16:54:19.626Z,12.75
2022-10-18T16:56:47.846Z,18.23
2022-10-18T16:59:27.030Z,36.92
2022-10-18T17:01:54.393Z,13.23
2022-10-18T17:04:21.700Z,21.70
2022-10-18T17:06:49.242Z,14.90
2022-10-18T17:09:16.834Z,11.70
2022-10-18T17:11:44.041Z,13.65
2022-10-18T17:14:11.161Z,11.45
2022-10-18T17:16:39.135Z,11.95
2022-10-18T17:19:07.794Z,9.05
2022-10-18T17:21:35.350Z,13.90
2022-10-18T17:24:04.250Z,8.05
2022-10-18T17:26:31.677Z,14.10
2022-10-18T17:29:00.565Z,10.50
2022-10-18T17:31:28.227Z,13.48
2022-10-18T17:33:55.491Z,12.50
2022-10-18T17:36:23.215Z,15.02
2022-10-18T17:38:51.121Z,10.77
2022-10-18T17:41:18.433Z,10.75
2022-10-18T17:43:45.674Z,8.43
2022-10-18T17:46:14.261Z,11.70
2022-10-18T17:48:42.192Z,11.98
2022-10-18T17:51:10.272Z,11.15
2022-10-18T17:53:37.545Z,10.63
2022-10-18T17:56:05.371Z,11.77
2022-10-18T17:58:32.585Z,8.95
2022-10-18T18:01:09.138Z,10.13
2022-10-18T18:03:36.350Z,12.80
2022-10-18T18:06:12.265Z,11.85
2022-10-18T18:08:39.424Z,8.88
2022-10-18T18:11:07.091Z,9.30
2022-10-18T18:13:34.254Z,11.55
2022-10-18T18:16:17.985Z,8.30
2022-10-18T18:18:45.685Z,11.82
2022-10-18T18:21:13.122Z,14.35
2022-10-18T18:23:40.576Z,11.48
2022-10-18T18:26:08.061Z,6.78
2022-10-18T18:28:38.594Z,12.95
2022-10-18T18:31:07.113Z,14.55
2022-10-18T18:33:34.982Z,14.23
2022-10-18T18:36:04.843Z,9.98
2022-10-18T18:38:32.453Z,9.80
2022-10-18T18:41:05.808Z,9.85
2022-10-18T18:43:33.002Z,8.32
2022-10-18T18:46:00.182Z,10.15
2022-10-18T18:48:32.153Z,7.43
2022-10-18T18:50:59.514Z,6.90
2022-10-18T18:53:29.388Z,5.20
2022-10-18T18:56:01.580Z,7.43
2022-10-18T18:58:28.777Z,17.23
2022-10-18T19:00:56.051Z,10.65
2022-10-18T19:03:23.304Z,10.32
2022-10-18T19:05:50.504Z,4.88
2022-10-18T19:08:17.629Z,15.90
2022-10-18T19:10:49.009Z,9.45
2022-10-18T19:13:16.402Z,9.55
2022-10-18T19:15:43.773Z,7.65
2022-10-18T19:18:10.978Z,12.40
2022-10-18T19:20:38.136Z,14.40
2022-10-18T19:23:05.290Z,7.57
2022-10-18T19:25:32.479Z,15.15
2022-10-18T19:28:00.013Z,8.80
2022-10-18T19:30:27.228Z,8.82
2022-10-18T19:33:01.141Z,9.80
2022-10-18T19:35:30.648Z,12.75
2022-10-18T19:37:57.793Z,20.58
2022-10-18T19:40:25.160Z,11.20
2022-10-18T19:42:52.373Z,12.52
2022-10-18T19:45:19.502Z,8.52
2022-10-18T19:47:46.689Z,10.48
2022-10-18T19:50:13.890Z,8.68
2022-10-18T19:52:41.062Z,8.23
2022-10-18T19:55:08.514Z,12.25
2022-10-18T19:57:35.648Z,15.13
2022-10-18T20:00:05.444Z,10.55
2022-10-18T20:02:35.522Z,8.65
2022-10-18T20:05:03.849Z,10.98
2022-10-18T20:07:31.036Z,5.40
2022-10-18T20:09:58.209Z,13.40
2022-10-18T20:12:25.388Z,8.07
2022-10-18T20:14:52.576Z,6.53
2022-10-18T20:17:20.838Z,10.90
2022-10-18T20:19:48.567Z,9.88
2022-10-18T20:22:15.696Z,7.38
2022-10-18T20:24:42.849Z,5.50
2022-10-18T20:27:10.004Z,13.82
2022-10-18T20:29:37.187Z,4.80
2022-10-18T20:32:04.354Z,10.88
2022-10-18T20:34:31.558Z,8.65
2022-10-18T20:36:59.022Z,5.28
2022-10-18T20:39:26.247Z,10.50
2022-10-18T20:41:53.405Z,11.57
2022-10-18T20:44:22.526Z,12.75
2022-10-18T20:46:49.710Z,30.67
2022-10-18T20:49:17.431Z,10.32
2022-10-18T20:51:44.784Z,13.60
2022-10-18T20:54:12.174Z,7.90
2022-10-18T20:56:39.671Z,9.50
2022-10-18T20:59:09.693Z,10.35
2022-10-18T21:01:37.592Z,9.23
2022-10-18T21:04:06.599Z,13.05
2022-10-18T21:06:41.338Z,10.95
2022-10-18T21:09:09.745Z,13.20
2022-10-18T21:11:37.913Z,14.75
2022-10-18T21:14:05.753Z,8.52
2022-10-18T21:16:33.789Z,9.23
2022-10-18T21:19:08.585Z,14.20
2022-10-18T21:21:36.089Z,10.65
2022-10-18T21:24:06.937Z,16.50
2022-10-18T21:26:35.435Z,13.93
2022-10-18T21:29:03.249Z,11.50
2022-10-18T21:31:32.243Z,8.73
2022-10-18T21:34:00.813Z,10.30
2022-10-18T21:36:28.549Z,13.95
2022-10-18T21:38:55.797Z,11.35
2022-10-18T21:41:23.365Z,7.93
2022-10-18T21:43:51.961Z,9.13
2022-10-18T21:46:20.316Z,7.45
2022-10-18T21:48:48.610Z,9.73
2022-10-18T21:51:18.308Z,11.70
2022-10-18T21:53:47.080Z,8.02
2022-10-18T21:56:18.760Z,9.18
2022-10-18T21:58:46.626Z,10.57
2022-10-18T22:01:15.673Z,5.53
2022-10-18T22:03:43.383Z,4.75
2022-10-18T22:06:15.110Z,9.60
2022-10-18T22:08:43.155Z,9.77
2022-10-18T22:11:10.749Z,11.15
2022-10-18T22:13:38.012Z,8.07
2022-10-18T22:16:06.001Z,12.30
2022-10-18T22:18:33.823Z,12.18
2022-10-18T22:21:02.267Z,13.13
2022-10-18T22:23:36.281Z,13.88
2022-10-18T22:26:07.949Z,10.77
2022-10-18T22:28:36.088Z,8.82
2022-10-18T22:31:03.414Z,10.43
2022-10-18T22:33:30.825Z,11.02
2022-10-18T22:35:58.066Z,14.57
2022-10-18T22:38:25.200Z,10.48
2022-10-18T22:40:52.343Z,11.65
2022-10-18T22:43:19.659Z,10.85
2022-10-18T22:45:46.916Z,10.00
2022-10-18T22:48:14.052Z,10.68
2022-10-18T22:50:41.233Z,9.77
2022-10-18T22:53:08.372Z,13.88
2022-10-18T22:55:35.657Z,10.63
2022-10-18T22:58:02.806Z,11.73
2022-10-18T23:00:29.972Z,5.28
2022-10-18T23:02:57.197Z,7.07
2022-10-18T23:05:24.353Z,11.48
2022-10-18T23:07:51.490Z,12.38
2022-10-18T23:10:18.674Z,14.48
2022-10-18T23:12:45.793Z,7.78
2022-10-18T23:15:12.976Z,6.78
2022-10-18T23:17:40.353Z,12.20
2022-10-18T23:20:07.680Z,9.27
2022-10-18T23:22:35.144Z,12.52
2022-10-18T23:25:02.577Z,14.77
2022-10-18T23:27:30.202Z,10.82
2022-10-18T23:29:57.476Z,12.73
2022-10-18T23:32:24.658Z,7.70
2022-10-18T23:34:52.261Z,8.68
2022-10-18T23:37:19.426Z,10.00
2022-10-18T23:39:46.713Z,13.40
2022-10-18T23:42:13.897Z,10.30
2022-10-18T23:44:41.053Z,9.55
2022-10-18T23:47:08.258Z,12.07
2022-10-18T23:49:35.513Z,11.88
2022-10-18T23:52:02.656Z,12.10
2022-10-18T23:54:29.793Z,12.02
2022-10-18T23:56:56.941Z,12.60
2022-10-18T23:59:24.086Z,8.65
